sensor_id;sensor_type;location;lat;lon;timestamp;P1;durP1;ratioP1;P2;durP2;ratioP2
33716;SDS011;20046;50.746;7.072;2023-08-12T00:00:03;45.03;;;27.65;;
33716;SDS011;20046;50.746;7.072;2023-08-12T00:02:36;42.40;;;28.15;;
33716;SDS011;20046;50.746;7.072;2023-08-12T00:05:05;40.25;;;27.00;;
33716;SDS011;20046;50.746;7.072;2023-08-12T00:07:32;41.53;;;27.45;;
33716;SDS011;20046;50.746;7.072;2023-08-12T00:10:02;49.15;;;31.70;;
33716;SDS011;20046;50.746;7.072;2023-08-12T00:12:29;41.00;;;27.15;;
33716;SDS011;20046;50.746;7.072;2023-08-12T00:14:59;46.42;;;30.75;;
33716;SDS011;20046;50.746;7.072;2023-08-12T00:17:25;44.97;;;31.38;;
33716;SDS011;20046;50.746;7.072;2023-08-12T00:19:51;44.08;;;31.95;;
33716;SDS011;20046;50.746;7.072;2023-08-12T00:22:17;48.03;;;34.55;;
33716;SDS011;20046;50.746;7.072;2023-08-12T00:24:42;49.88;;;35.17;;
33716;SDS011;20046;50.746;7.072;2023-08-12T00:27:08;55.88;;;37.33;;
33716;SDS011;20046;50.746;7.072;2023-08-12T00:29:34;48.58;;;34.88;;
33716;SDS011;20046;50.746;7.072;2023-08-12T00:32:00;51.10;;;36.45;;
33716;SDS011;20046;50.746;7.072;2023-08-12T00:34:26;52.78;;;36.53;;
33716;SDS011;20046;50.746;7.072;2023-08-12T00:36:51;48.63;;;35.75;;
33716;SDS011;20046;50.746;7.072;2023-08-12T00:39:17;54.20;;;39.47;;
33716;SDS011;20046;50.746;7.072;2023-08-12T00:41:43;56.50;;;39.15;;
33716;SDS011;20046;50.746;7.072;2023-08-12T00:44:08;51.97;;;32.75;;
33716;SDS011;20046;50.746;7.072;2023-08-12T00:46:34;49.65;;;33.42;;
33716;SDS011;20046;50.746;7.072;2023-08-12T00:49:01;45.17;;;29.95;;
33716;SDS011;20046;50.746;7.072;2023-08-12T00:51:27;51.65;;;31.98;;
33716;SDS011;20046;50.746;7.072;2023-08-12T00:53:53;49.80;;;32.97;;
33716;SDS011;20046;50.746;7.072;2023-08-12T00:56:20;50.95;;;31.98;;
33716;SDS011;20046;50.746;7.072;2023-08-12T00:58:46;50.45;;;32.67;;
33716;SDS011;20046;50.746;7.072;2023-08-12T01:01:12;48.05;;;31.38;;
33716;SDS011;20046;50.746;7.072;2023-08-12T01:03:38;45.55;;;31.30;;
33716;SDS011;20046;50.746;7.072;2023-08-12T01:06:04;52.95;;;33.20;;
33716;SDS011;20046;50.746;7.072;2023-08-12T01:08:31;50.95;;;34.00;;
33716;SDS011;20046;50.746;7.072;2023-08-12T01:11:11;46.72;;;31.98;;
33716;SDS011;20046;50.746;7.072;2023-08-12T01:16:21;48.63;;;30.20;;
33716;SDS011;20046;50.746;7.072;2023-08-12T01:18:49;43.35;;;27.13;;
33716;SDS011;20046;50.746;7.072;2023-08-12T01:21:16;45.35;;;31.15;;
33716;SDS011;20046;50.746;7.072;2023-08-12T01:23:42;47.97;;;31.48;;
33716;SDS011;20046;50.746;7.072;2023-08-12T01:26:09;53.47;;;32.65;;
33716;SDS011;20046;50.746;7.072;2023-08-12T01:28:35;49.63;;;32.80;;
33716;SDS011;20046;50.746;7.072;2023-08-12T01:31:15;48.53;;;32.25;;
33716;SDS011;20046;50.746;7.072;2023-08-12T01:34:12;53.33;;;32.00;;
33716;SDS011;20046;50.746;7.072;2023-08-12T01:36:39;60.15;;;38.85;;
33716;SDS011;20046;50.746;7.072;2023-08-12T01:39:11;171.68;;;108.97;;
33716;SDS011;20046;50.746;7.072;2023-08-12T01:41:37;59.30;;;36.00;;
33716;SDS011;20046;50.746;7.072;2023-08-12T01:44:03;54.38;;;35.53;;
33716;SDS011;20046;50.746;7.072;2023-08-12T01:46:29;51.85;;;34.67;;
33716;SDS011;20046;50.746;7.072;2023-08-12T01:48:56;54.15;;;34.53;;
33716;SDS011;20046;50.746;7.072;2023-08-12T01:51:21;55.47;;;34.60;;
33716;SDS011;20046;50.746;7.072;2023-08-12T01:53:47;56.38;;;34.97;;
33716;SDS011;20046;50.746;7.072;2023-08-12T01:56:13;58.22;;;36.47;;
33716;SDS011;20046;50.746;7.072;2023-08-12T01:58:38;56.85;;;35.08;;
33716;SDS011;20046;50.746;7.072;2023-08-12T02:01:04;54.83;;;33.17;;
33716;SDS011;20046;50.746;7.072;2023-08-12T02:03:29;51.60;;;32.35;;
33716;SDS011;20046;50.746;7.072;2023-08-12T02:05:55;54.85;;;32.95;;
33716;SDS011;20046;50.746;7.072;2023-08-12T02:08:21;53.35;;;32.70;;
33716;SDS011;20046;50.746;7.072;2023-08-12T02:10:46;47.13;;;32.17;;
33716;SDS011;20046;50.746;7.072;2023-08-12T02:13:12;54.10;;;31.92;;
33716;SDS011;20046;50.746;7.072;2023-08-12T02:15:37;50.00;;;31.83;;
33716;SDS011;20046;50.746;7.072;2023-08-12T02:18:03;49.53;;;30.10;;
33716;SDS011;20046;50.746;7.072;2023-08-12T02:20:29;53.10;;;34.60;;
33716;SDS011;20046;50.746;7.072;2023-08-12T02:22:54;109.65;;;68.90;;
33716;SDS011;20046;50.746;7.072;2023-08-12T02:25:20;61.10;;;40.72;;
33716;SDS011;20046;50.746;7.072;2023-08-12T02:27:46;54.47;;;34.63;;
33716;SDS011;20046;50.746;7.072;2023-08-12T02:30:11;48.67;;;28.63;;
33716;SDS011;20046;50.746;7.072;2023-08-12T02:32:37;50.90;;;29.75;;
33716;SDS011;20046;50.746;7.072;2023-08-12T02:35:03;38.92;;;27.17;;
33716;SDS011;20046;50.746;7.072;2023-08-12T02:37:28;34.53;;;24.50;;
33716;SDS011;20046;50.746;7.072;2023-08-12T02:39:54;31.75;;;21.08;;
33716;SDS011;20046;50.746;7.072;2023-08-12T02:42:19;33.50;;;23.92;;
33716;SDS011;20046;50.746;7.072;2023-08-12T02:44:45;35.30;;;24.83;;
33716;SDS011;20046;50.746;7.072;2023-08-12T02:47:11;34.35;;;24.35;;
33716;SDS011;20046;50.746;7.072;2023-08-12T02:49:36;39.25;;;23.75;;
33716;SDS011;20046;50.746;7.072;2023-08-12T02:52:02;33.33;;;22.95;;
33716;SDS011;20046;50.746;7.072;2023-08-12T02:54:27;32.33;;;22.33;;
33716;SDS011;20046;50.746;7.072;2023-08-12T02:56:53;32.08;;;21.30;;
33716;SDS011;20046;50.746;7.072;2023-08-12T02:59:19;33.03;;;20.88;;
33716;SDS011;20046;50.746;7.072;2023-08-12T03:01:44;28.92;;;22.55;;
33716;SDS011;20046;50.746;7.072;2023-08-12T03:04:10;33.78;;;21.70;;
33716;SDS011;20046;50.746;7.072;2023-08-12T03:06:36;32.05;;;21.77;;
33716;SDS011;20046;50.746;7.072;2023-08-12T03:09:01;35.88;;;22.30;;
33716;SDS011;20046;50.746;7.072;2023-08-12T03:11:27;33.47;;;21.17;;
33716;SDS011;20046;50.746;7.072;2023-08-12T03:13:53;31.23;;;20.02;;
33716;SDS011;20046;50.746;7.072;2023-08-12T03:16:18;33.38;;;21.42;;
33716;SDS011;20046;50.746;7.072;2023-08-12T03:18:44;34.58;;;21.10;;
33716;SDS011;20046;50.746;7.072;2023-08-12T03:21:09;27.20;;;18.85;;
33716;SDS011;20046;50.746;7.072;2023-08-12T03:23:35;29.42;;;19.90;;
33716;SDS011;20046;50.746;7.072;2023-08-12T03:26:02;31.08;;;20.00;;
33716;SDS011;20046;50.746;7.072;2023-08-12T03:28:28;30.38;;;19.90;;
33716;SDS011;20046;50.746;7.072;2023-08-12T03:30:54;28.10;;;19.75;;
33716;SDS011;20046;50.746;7.072;2023-08-12T03:33:20;24.42;;;17.88;;
33716;SDS011;20046;50.746;7.072;2023-08-12T03:35:46;26.30;;;17.27;;
33716;SDS011;20046;50.746;7.072;2023-08-12T03:38:12;27.35;;;17.48;;
33716;SDS011;20046;50.746;7.072;2023-08-12T03:40:39;25.85;;;17.77;;
33716;SDS011;20046;50.746;7.072;2023-08-12T03:43:05;28.60;;;18.98;;
33716;SDS011;20046;50.746;7.072;2023-08-12T03:45:31;24.58;;;20.17;;
33716;SDS011;20046;50.746;7.072;2023-08-12T03:47:56;29.20;;;20.35;;
33716;SDS011;20046;50.746;7.072;2023-08-12T03:50:22;31.60;;;21.55;;
33716;SDS011;20046;50.746;7.072;2023-08-12T03:52:47;30.80;;;21.83;;
33716;SDS011;20046;50.746;7.072;2023-08-12T03:55:13;31.38;;;20.63;;
33716;SDS011;20046;50.746;7.072;2023-08-12T03:57:38;29.42;;;21.02;;
33716;SDS011;20046;50.746;7.072;2023-08-12T04:00:05;32.45;;;19.90;;
33716;SDS011;20046;50.746;7.072;2023-08-12T04:02:33;31.70;;;20.02;;
33716;SDS011;20046;50.746;7.072;2023-08-12T04:04:58;25.23;;;19.73;;
33716;SDS011;20046;50.746;7.072;2023-08-12T04:07:24;29.65;;;19.35;;
33716;SDS011;20046;50.746;7.072;2023-08-12T04:09:49;28.85;;;19.70;;
33716;SDS011;20046;50.746;7.072;2023-08-12T04:12:15;27.58;;;19.13;;
33716;SDS011;20046;50.746;7.072;2023-08-12T04:14:40;23.75;;;18.17;;
33716;SDS011;20046;50.746;7.072;2023-08-12T04:17:06;26.52;;;17.85;;
33716;SDS011;20046;50.746;7.072;2023-08-12T04:19:32;24.90;;;17.65;;
33716;SDS011;20046;50.746;7.072;2023-08-12T04:21:57;23.55;;;18.13;;
33716;SDS011;20046;50.746;7.072;2023-08-12T04:24:23;24.48;;;16.98;;
33716;SDS011;20046;50.746;7.072;2023-08-12T04:26:48;26.10;;;18.60;;
33716;SDS011;20046;50.746;7.072;2023-08-12T04:29:14;27.00;;;18.30;;
33716;SDS011;20046;50.746;7.072;2023-08-12T04:31:40;21.10;;;17.02;;
33716;SDS011;20046;50.746;7.072;2023-08-12T04:34:06;27.10;;;18.48;;
33716;SDS011;20046;50.746;7.072;2023-08-12T04:36:31;26.55;;;19.00;;
33716;SDS011;20046;50.746;7.072;2023-08-12T04:38:57;27.80;;;18.73;;
33716;SDS011;20046;50.746;7.072;2023-08-12T04:41:23;26.67;;;19.13;;
33716;SDS011;20046;50.746;7.072;2023-08-12T04:43:51;31.35;;;19.73;;
33716;SDS011;20046;50.746;7.072;2023-08-12T04:46:17;27.23;;;19.90;;
33716;SDS011;20046;50.746;7.072;2023-08-12T04:48:42;31.45;;;21.13;;
33716;SDS011;20046;50.746;7.072;2023-08-12T04:51:08;28.60;;;22.27;;
33716;SDS011;20046;50.746;7.072;2023-08-12T04:53:34;33.53;;;22.98;;
33716;SDS011;20046;50.746;7.072;2023-08-12T04:55:59;36.88;;;22.30;;
33716;SDS011;20046;50.746;7.072;2023-08-12T04:58:25;34.95;;;24.42;;
33716;SDS011;20046;50.746;7.072;2023-08-12T05:00:51;33.47;;;24.17;;
33716;SDS011;20046;50.746;7.072;2023-08-12T05:03:19;33.03;;;24.60;;
33716;SDS011;20046;50.746;7.072;2023-08-12T05:05:49;33.72;;;24.17;;
33716;SDS011;20046;50.746;7.072;2023-08-12T05:08:15;35.60;;;25.20;;
33716;SDS011;20046;50.746;7.072;2023-08-12T05:10:41;31.77;;;25.58;;
33716;SDS011;20046;50.746;7.072;2023-08-12T05:13:06;28.48;;;24.15;;
33716;SDS011;20046;50.746;7.072;2023-08-12T05:15:32;33.58;;;24.65;;
33716;SDS011;20046;50.746;7.072;2023-08-12T05:17:58;42.83;;;25.52;;
33716;SDS011;20046;50.746;7.072;2023-08-12T05:20:23;33.92;;;26.40;;
33716;SDS011;20046;50.746;7.072;2023-08-12T05:22:49;30.92;;;25.10;;
33716;SDS011;20046;50.746;7.072;2023-08-12T05:25:14;29.88;;;23.90;;
33716;SDS011;20046;50.746;7.072;2023-08-12T05:27:40;31.25;;;23.10;;
33716;SDS011;20046;50.746;7.072;2023-08-12T05:30:06;30.02;;;23.55;;
33716;SDS011;20046;50.746;7.072;2023-08-12T05:32:32;29.05;;;23.70;;
33716;SDS011;20046;50.746;7.072;2023-08-12T05:34:58;22.52;;;18.50;;
33716;SDS011;20046;50.746;7.072;2023-08-12T05:37:23;26.83;;;18.33;;
33716;SDS011;20046;50.746;7.072;2023-08-12T05:39:49;18.45;;;16.40;;
33716;SDS011;20046;50.746;7.072;2023-08-12T05:42:14;16.45;;;13.60;;
33716;SDS011;20046;50.746;7.072;2023-08-12T05:44:40;20.63;;;14.27;;
33716;SDS011;20046;50.746;7.072;2023-08-12T05:47:06;19.02;;;14.55;;
33716;SDS011;20046;50.746;7.072;2023-08-12T05:49:32;15.90;;;14.30;;
33716;SDS011;20046;50.746;7.072;2023-08-12T05:51:57;17.10;;;14.20;;
33716;SDS011;20046;50.746;7.072;2023-08-12T05:54:23;17.23;;;12.18;;
33716;SDS011;20046;50.746;7.072;2023-08-12T05:56:49;22.55;;;10.90;;
33716;SDS011;20046;50.746;7.072;2023-08-12T05:59:14;14.80;;;11.23;;
33716;SDS011;20046;50.746;7.072;2023-08-12T06:01:40;16.35;;;9.77;;
33716;SDS011;20046;50.746;7.072;2023-08-12T06:04:05;12.85;;;8.30;;
33716;SDS011;20046;50.746;7.072;2023-08-12T06:06:31;14.32;;;8.80;;
33716;SDS011;20046;50.746;7.072;2023-08-12T06:08:56;14.93;;;8.00;;
33716;SDS011;20046;50.746;7.072;2023-08-12T06:11:22;9.98;;;5.85;;
33716;SDS011;20046;50.746;7.072;2023-08-12T06:13:48;10.20;;;5.30;;
33716;SDS011;20046;50.746;7.072;2023-08-12T06:16:13;10.02;;;5.70;;
33716;SDS011;20046;50.746;7.072;2023-08-12T06:18:39;9.40;;;4.90;;
33716;SDS011;20046;50.746;7.072;2023-08-12T06:21:04;7.30;;;5.35;;
33716;SDS011;20046;50.746;7.072;2023-08-12T06:23:30;9.95;;;5.95;;
33716;SDS011;20046;50.746;7.072;2023-08-12T06:25:56;8.73;;;5.25;;
33716;SDS011;20046;50.746;7.072;2023-08-12T06:28:21;12.75;;;5.13;;
33716;SDS011;20046;50.746;7.072;2023-08-12T06:30:47;9.27;;;5.38;;
33716;SDS011;20046;50.746;7.072;2023-08-12T06:33:13;11.70;;;5.80;;
33716;SDS011;20046;50.746;7.072;2023-08-12T06:35:40;11.27;;;4.75;;
33716;SDS011;20046;50.746;7.072;2023-08-12T06:38:06;11.63;;;4.93;;
33716;SDS011;20046;50.746;7.072;2023-08-12T06:40:31;10.65;;;5.20;;
33716;SDS011;20046;50.746;7.072;2023-08-12T06:42:57;13.05;;;5.65;;
33716;SDS011;20046;50.746;7.072;2023-08-12T06:45:23;9.00;;;5.50;;
33716;SDS011;20046;50.746;7.072;2023-08-12T06:47:48;16.65;;;6.22;;
33716;SDS011;20046;50.746;7.072;2023-08-12T06:50:14;10.80;;;5.53;;
33716;SDS011;20046;50.746;7.072;2023-08-12T06:52:39;7.97;;;4.85;;
33716;SDS011;20046;50.746;7.072;2023-08-12T06:55:05;10.88;;;5.20;;
33716;SDS011;20046;50.746;7.072;2023-08-12T06:57:31;8.73;;;4.60;;
33716;SDS011;20046;50.746;7.072;2023-08-12T06:59:57;11.45;;;5.07;;
33716;SDS011;20046;50.746;7.072;2023-08-12T07:02:22;6.32;;;4.65;;
33716;SDS011;20046;50.746;7.072;2023-08-12T07:04:48;9.30;;;4.53;;
33716;SDS011;20046;50.746;7.072;2023-08-12T07:07:13;9.70;;;5.05;;
33716;SDS011;20046;50.746;7.072;2023-08-12T07:09:39;8.13;;;5.03;;
33716;SDS011;20046;50.746;7.072;2023-08-12T07:12:05;6.55;;;4.03;;
33716;SDS011;20046;50.746;7.072;2023-08-12T07:14:31;7.43;;;3.65;;
33716;SDS011;20046;50.746;7.072;2023-08-12T07:16:56;10.52;;;3.95;;
33716;SDS011;20046;50.746;7.072;2023-08-12T07:19:22;5.53;;;3.50;;
33716;SDS011;20046;50.746;7.072;2023-08-12T07:21:48;8.20;;;3.78;;
33716;SDS011;20046;50.746;7.072;2023-08-12T07:24:13;7.50;;;3.90;;
33716;SDS011;20046;50.746;7.072;2023-08-12T07:26:39;9.40;;;3.78;;
33716;SDS011;20046;50.746;7.072;2023-08-12T07:29:04;6.95;;;4.40;;
33716;SDS011;20046;50.746;7.072;2023-08-12T07:31:30;5.47;;;3.33;;
33716;SDS011;20046;50.746;7.072;2023-08-12T07:33:55;9.35;;;4.13;;
33716;SDS011;20046;50.746;7.072;2023-08-12T07:36:21;5.43;;;3.20;;
33716;SDS011;20046;50.746;7.072;2023-08-12T07:38:47;6.60;;;3.10;;
33716;SDS011;20046;50.746;7.072;2023-08-12T07:41:13;11.20;;;3.63;;
33716;SDS011;20046;50.746;7.072;2023-08-12T07:43:38;8.63;;;2.80;;
33716;SDS011;20046;50.746;7.072;2023-08-12T07:46:04;7.57;;;2.88;;
33716;SDS011;20046;50.746;7.072;2023-08-12T07:48:30;6.13;;;3.30;;
33716;SDS011;20046;50.746;7.072;2023-08-12T07:50:58;11.43;;;4.00;;
33716;SDS011;20046;50.746;7.072;2023-08-12T07:53:25;6.50;;;3.33;;
33716;SDS011;20046;50.746;7.072;2023-08-12T07:55:51;6.30;;;3.70;;
33716;SDS011;20046;50.746;7.072;2023-08-12T07:58:17;5.50;;;3.00;;
33716;SDS011;20046;50.746;7.072;2023-08-12T08:00:43;7.55;;;2.83;;
33716;SDS011;20046;50.746;7.072;2023-08-12T08:03:09;3.25;;;2.83;;
33716;SDS011;20046;50.746;7.072;2023-08-12T08:05:34;5.75;;;2.63;;
33716;SDS011;20046;50.746;7.072;2023-08-12T08:08:00;8.75;;;3.25;;
33716;SDS011;20046;50.746;7.072;2023-08-12T08:10:25;5.53;;;2.55;;
33716;SDS011;20046;50.746;7.072;2023-08-12T08:12:51;5.80;;;2.83;;
33716;SDS011;20046;50.746;7.072;2023-08-12T08:15:17;5.80;;;2.55;;
33716;SDS011;20046;50.746;7.072;2023-08-12T08:17:42;5.05;;;2.42;;
33716;SDS011;20046;50.746;7.072;2023-08-12T08:20:08;5.38;;;2.72;;
33716;SDS011;20046;50.746;7.072;2023-08-12T08:22:35;5.72;;;2.58;;
33716;SDS011;20046;50.746;7.072;2023-08-12T08:25:01;8.43;;;3.45;;
33716;SDS011;20046;50.746;7.072;2023-08-12T08:27:27;6.55;;;2.83;;
33716;SDS011;20046;50.746;7.072;2023-08-12T08:29:53;9.75;;;3.30;;
33716;SDS011;20046;50.746;7.072;2023-08-12T08:32:18;6.97;;;2.70;;
33716;SDS011;20046;50.746;7.072;2023-08-12T08:34:44;4.30;;;2.67;;
33716;SDS011;20046;50.746;7.072;2023-08-12T08:37:09;5.35;;;2.38;;
33716;SDS011;20046;50.746;7.072;2023-08-12T08:39:35;6.70;;;2.53;;
33716;SDS011;20046;50.746;7.072;2023-08-12T08:42:00;4.30;;;2.55;;
33716;SDS011;20046;50.746;7.072;2023-08-12T08:44:29;9.93;;;2.78;;
33716;SDS011;20046;50.746;7.072;2023-08-12T08:46:56;8.70;;;2.75;;
33716;SDS011;20046;50.746;7.072;2023-08-12T08:49:25;9.35;;;2.35;;
33716;SDS011;20046;50.746;7.072;2023-08-12T08:51:51;6.97;;;2.60;;
33716;SDS011;20046;50.746;7.072;2023-08-12T08:54:18;9.63;;;2.40;;
33716;SDS011;20046;50.746;7.072;2023-08-12T08:56:44;5.78;;;3.05;;
33716;SDS011;20046;50.746;7.072;2023-08-12T08:59:10;6.93;;;2.47;;
33716;SDS011;20046;50.746;7.072;2023-08-12T09:01:36;5.00;;;2.58;;
33716;SDS011;20046;50.746;7.072;2023-08-12T09:04:03;6.38;;;2.38;;
33716;SDS011;20046;50.746;7.072;2023-08-12T09:06:30;5.30;;;2.50;;
33716;SDS011;20046;50.746;7.072;2023-08-12T09:08:57;5.18;;;2.90;;
33716;SDS011;20046;50.746;7.072;2023-08-12T09:11:24;6.32;;;2.80;;
33716;SDS011;20046;50.746;7.072;2023-08-12T09:13:50;8.57;;;3.15;;
33716;SDS011;20046;50.746;7.072;2023-08-12T09:16:17;11.68;;;3.00;;
33716;SDS011;20046;50.746;7.072;2023-08-12T09:18:43;4.30;;;2.50;;
33716;SDS011;20046;50.746;7.072;2023-08-12T09:21:09;6.75;;;2.85;;
33716;SDS011;20046;50.746;7.072;2023-08-12T09:23:37;7.82;;;3.03;;
33716;SDS011;20046;50.746;7.072;2023-08-12T09:26:10;5.45;;;2.60;;
33716;SDS011;20046;50.746;7.072;2023-08-12T09:28:38;6.30;;;2.45;;
33716;SDS011;20046;50.746;7.072;2023-08-12T09:31:04;2.95;;;2.13;;
33716;SDS011;20046;50.746;7.072;2023-08-12T09:33:30;4.95;;;2.25;;
33716;SDS011;20046;50.746;7.072;2023-08-12T09:35:55;4.88;;;2.35;;
33716;SDS011;20046;50.746;7.072;2023-08-12T09:38:24;8.18;;;2.67;;
33716;SDS011;20046;50.746;7.072;2023-08-12T09:40:51;4.72;;;2.63;;
33716;SDS011;20046;50.746;7.072;2023-08-12T09:43:17;4.40;;;2.50;;
33716;SDS011;20046;50.746;7.072;2023-08-12T09:45:44;5.63;;;2.30;;
33716;SDS011;20046;50.746;7.072;2023-08-12T09:48:10;5.05;;;2.38;;
33716;SDS011;20046;50.746;7.072;2023-08-12T09:50:36;4.70;;;2.20;;
33716;SDS011;20046;50.746;7.072;2023-08-12T09:53:01;3.97;;;2.38;;
33716;SDS011;20046;50.746;7.072;2023-08-12T09:55:30;6.20;;;2.47;;
33716;SDS011;20046;50.746;7.072;2023-08-12T09:57:59;6.03;;;2.67;;
33716;SDS011;20046;50.746;7.072;2023-08-12T10:00:26;4.35;;;2.03;;
33716;SDS011;20046;50.746;7.072;2023-08-12T10:02:52;3.35;;;1.83;;
33716;SDS011;20046;50.746;7.072;2023-08-12T10:05:19;9.93;;;2.42;;
33716;SDS011;20046;50.746;7.072;2023-08-12T10:07:47;5.40;;;2.17;;
33716;SDS011;20046;50.746;7.072;2023-08-12T10:10:13;5.18;;;2.03;;
33716;SDS011;20046;50.746;7.072;2023-08-12T10:12:40;3.78;;;2.50;;
33716;SDS011;20046;50.746;7.072;2023-08-12T10:15:06;7.50;;;2.47;;
33716;SDS011;20046;50.746;7.072;2023-08-12T10:17:33;4.47;;;2.35;;
33716;SDS011;20046;50.746;7.072;2023-08-12T10:20:00;4.05;;;2.33;;
33716;SDS011;20046;50.746;7.072;2023-08-12T10:22:29;6.85;;;2.47;;
33716;SDS011;20046;50.746;7.072;2023-08-12T10:24:58;5.88;;;2.85;;
33716;SDS011;20046;50.746;7.072;2023-08-12T10:27:26;5.60;;;2.63;;
33716;SDS011;20046;50.746;7.072;2023-08-12T10:29:52;8.55;;;2.50;;
33716;SDS011;20046;50.746;7.072;2023-08-12T10:32:17;5.18;;;2.30;;
33716;SDS011;20046;50.746;7.072;2023-08-12T10:34:43;8.95;;;2.15;;
33716;SDS011;20046;50.746;7.072;2023-08-12T10:37:09;2.58;;;2.03;;
33716;SDS011;20046;50.746;7.072;2023-08-12T10:39:36;2.28;;;2.00;;
33716;SDS011;20046;50.746;7.072;2023-08-12T10:42:03;4.07;;;2.10;;
33716;SDS011;20046;50.746;7.072;2023-08-12T10:44:39;4.78;;;2.15;;
33716;SDS011;20046;50.746;7.072;2023-08-12T10:47:15;6.88;;;2.40;;
33716;SDS011;20046;50.746;7.072;2023-08-12T10:49:48;4.45;;;2.58;;
33716;SDS011;20046;50.746;7.072;2023-08-12T10:57:42;4.20;;;2.20;;
33716;SDS011;20046;50.746;7.072;2023-08-12T11:00:13;5.50;;;2.08;;
33716;SDS011;20046;50.746;7.072;2023-08-12T11:02:40;2.58;;;1.92;;
33716;SDS011;20046;50.746;7.072;2023-08-12T11:05:10;5.75;;;2.08;;
33716;SDS011;20046;50.746;7.072;2023-08-12T11:10:37;3.80;;;2.00;;
33716;SDS011;20046;50.746;7.072;2023-08-12T11:13:03;3.78;;;2.15;;
33716;SDS011;20046;50.746;7.072;2023-08-12T11:18:01;4.38;;;2.15;;
33716;SDS011;20046;50.746;7.072;2023-08-12T11:20:29;5.63;;;2.25;;
33716;SDS011;20046;50.746;7.072;2023-08-12T11:22:54;8.43;;;1.70;;
33716;SDS011;20046;50.746;7.072;2023-08-12T11:25:21;4.75;;;2.03;;
33716;SDS011;20046;50.746;7.072;2023-08-12T11:27:47;8.10;;;2.50;;
33716;SDS011;20046;50.746;7.072;2023-08-12T11:30:13;3.85;;;2.25;;
33716;SDS011;20046;50.746;7.072;2023-08-12T11:32:44;3.65;;;2.17;;
33716;SDS011;20046;50.746;7.072;2023-08-12T11:35:11;3.58;;;1.70;;
33716;SDS011;20046;50.746;7.072;2023-08-12T11:37:38;3.22;;;1.80;;
33716;SDS011;20046;50.746;7.072;2023-08-12T11:40:04;3.65;;;1.80;;
33716;SDS011;20046;50.746;7.072;2023-08-12T11:42:33;2.72;;;1.95;;
33716;SDS011;20046;50.746;7.072;2023-08-12T11:44:59;2.88;;;1.58;;
33716;SDS011;20046;50.746;7.072;2023-08-12T11:47:25;2.17;;;1.60;;
33716;SDS011;20046;50.746;7.072;2023-08-12T11:49:52;2.95;;;1.70;;
33716;SDS011;20046;50.746;7.072;2023-08-12T11:52:19;1.90;;;1.33;;
33716;SDS011;20046;50.746;7.072;2023-08-12T11:54:45;6.72;;;1.40;;
33716;SDS011;20046;50.746;7.072;2023-08-12T11:57:10;1.83;;;1.45;;
33716;SDS011;20046;50.746;7.072;2023-08-12T11:59:36;6.80;;;1.73;;
33716;SDS011;20046;50.746;7.072;2023-08-12T12:02:02;2.17;;;1.40;;
33716;SDS011;20046;50.746;7.072;2023-08-12T12:04:30;4.13;;;1.45;;
33716;SDS011;20046;50.746;7.072;2023-08-12T12:06:56;1.65;;;1.23;;
33716;SDS011;20046;50.746;7.072;2023-08-12T12:09:22;3.70;;;1.40;;
33716;SDS011;20046;50.746;7.072;2023-08-12T12:11:51;2.83;;;1.23;;
33716;SDS011;20046;50.746;7.072;2023-08-12T12:14:17;1.90;;;1.42;;
33716;SDS011;20046;50.746;7.072;2023-08-12T12:16:47;2.63;;;1.30;;
33716;SDS011;20046;50.746;7.072;2023-08-12T12:19:14;2.38;;;1.52;;
33716;SDS011;20046;50.746;7.072;2023-08-12T12:21:50;2.72;;;1.65;;
33716;SDS011;20046;50.746;7.072;2023-08-12T12:24:19;3.83;;;1.38;;
33716;SDS011;20046;50.746;7.072;2023-08-12T12:26:45;1.27;;;1.00;;
33716;SDS011;20046;50.746;7.072;2023-08-12T12:29:12;3.97;;;1.80;;
33716;SDS011;20046;50.746;7.072;2023-08-12T12:31:38;2.05;;;1.55;;
33716;SDS011;20046;50.746;7.072;2023-08-12T12:34:05;2.35;;;1.30;;
33716;SDS011;20046;50.746;7.072;2023-08-12T12:36:33;1.27;;;0.90;;
33716;SDS011;20046;50.746;7.072;2023-08-12T12:39:01;3.08;;;0.90;;
33716;SDS011;20046;50.746;7.072;2023-08-12T12:41:27;1.55;;;0.80;;
33716;SDS011;20046;50.746;7.072;2023-08-12T12:43:53;1.73;;;1.00;;
33716;SDS011;20046;50.746;7.072;2023-08-12T12:46:19;2.92;;;1.13;;
33716;SDS011;20046;50.746;7.072;2023-08-12T12:48:44;3.35;;;1.00;;
33716;SDS011;20046;50.746;7.072;2023-08-12T12:51:11;1.10;;;0.90;;
33716;SDS011;20046;50.746;7.072;2023-08-12T12:53:37;2.50;;;1.05;;
33716;SDS011;20046;50.746;7.072;2023-08-12T12:56:03;1.25;;;0.80;;
33716;SDS011;20046;50.746;7.072;2023-08-12T12:58:35;2.05;;;1.10;;
33716;SDS011;20046;50.746;7.072;2023-08-12T13:01:02;5.28;;;1.92;;
33716;SDS011;20046;50.746;7.072;2023-08-12T13:03:29;2.83;;;1.20;;
33716;SDS011;20046;50.746;7.072;2023-08-12T13:05:56;1.05;;;0.82;;
33716;SDS011;20046;50.746;7.072;2023-08-12T13:08:22;2.15;;;0.70;;
33716;SDS011;20046;50.746;7.072;2023-08-12T13:10:48;0.95;;;0.70;;
33716;SDS011;20046;50.746;7.072;2023-08-12T13:13:14;2.45;;;1.10;;
33716;SDS011;20046;50.746;7.072;2023-08-12T13:15:41;1.48;;;0.80;;
33716;SDS011;20046;50.746;7.072;2023-08-12T13:18:07;2.05;;;0.98;;
33716;SDS011;20046;50.746;7.072;2023-08-12T13:20:33;1.77;;;0.88;;
33716;SDS011;20046;50.746;7.072;2023-08-12T13:22:59;2.83;;;0.90;;
33716;SDS011;20046;50.746;7.072;2023-08-12T13:25:25;1.55;;;1.27;;
33716;SDS011;20046;50.746;7.072;2023-08-12T13:27:53;1.90;;;1.23;;
33716;SDS011;20046;50.746;7.072;2023-08-12T13:30:18;1.85;;;1.13;;
33716;SDS011;20046;50.746;7.072;2023-08-12T13:32:44;1.77;;;0.93;;
33716;SDS011;20046;50.746;7.072;2023-08-12T13:35:10;1.33;;;0.73;;
33716;SDS011;20046;50.746;7.072;2023-08-12T13:37:36;2.53;;;1.00;;
33716;SDS011;20046;50.746;7.072;2023-08-12T13:40:01;1.35;;;0.98;;
33716;SDS011;20046;50.746;7.072;2023-08-12T13:42:28;1.65;;;0.90;;
33716;SDS011;20046;50.746;7.072;2023-08-12T13:44:53;1.25;;;0.95;;
33716;SDS011;20046;50.746;7.072;2023-08-12T13:47:19;2.05;;;1.08;;
33716;SDS011;20046;50.746;7.072;2023-08-12T13:49:44;1.73;;;0.80;;
33716;SDS011;20046;50.746;7.072;2023-08-12T13:52:10;1.80;;;0.95;;
33716;SDS011;20046;50.746;7.072;2023-08-12T13:54:35;3.00;;;0.95;;
33716;SDS011;20046;50.746;7.072;2023-08-12T13:57:02;0.43;;;0.43;;
33716;SDS011;20046;50.746;7.072;2023-08-12T13:59:29;1.58;;;0.60;;
33716;SDS011;20046;50.746;7.072;2023-08-12T14:01:54;1.50;;;0.50;;
33716;SDS011;20046;50.746;7.072;2023-08-12T14:04:20;2.28;;;0.60;;
33716;SDS011;20046;50.746;7.072;2023-08-12T14:06:46;1.80;;;0.40;;
33716;SDS011;20046;50.746;7.072;2023-08-12T14:09:11;3.72;;;1.90;;
33716;SDS011;20046;50.746;7.072;2023-08-12T14:11:39;1.27;;;0.40;;
33716;SDS011;20046;50.746;7.072;2023-08-12T14:14:05;4.40;;;0.40;;
33716;SDS011;20046;50.746;7.072;2023-08-12T14:16:30;2.42;;;1.85;;
33716;SDS011;20046;50.746;7.072;2023-08-12T14:18:56;4.30;;;0.93;;
33716;SDS011;20046;50.746;7.072;2023-08-12T14:21:21;10.35;;;3.63;;
33716;SDS011;20046;50.746;7.072;2023-08-12T14:23:47;0.65;;;0.60;;
33716;SDS011;20046;50.746;7.072;2023-08-12T14:26:13;1.33;;;0.50;;
33716;SDS011;20046;50.746;7.072;2023-08-12T14:28:38;1.02;;;0.70;;
33716;SDS011;20046;50.746;7.072;2023-08-12T14:31:04;1.17;;;0.63;;
33716;SDS011;20046;50.746;7.072;2023-08-12T14:33:29;1.38;;;0.80;;
33716;SDS011;20046;50.746;7.072;2023-08-12T14:35:58;0.95;;;0.70;;
33716;SDS011;20046;50.746;7.072;2023-08-12T14:38:24;1.08;;;0.65;;
33716;SDS011;20046;50.746;7.072;2023-08-12T14:40:49;3.28;;;0.50;;
33716;SDS011;20046;50.746;7.072;2023-08-12T14:43:15;2.20;;;0.70;;